sensor_id;sensor_type;location;lat;lon;timestamp;P1;durP1;ratioP1;P2;durP2;ratioP2
5555;SDS011;2801;50.972;7.856;2023-04-15T00:01:28;11.37;;;5.73;;
5555;SDS011;2801;50.972;7.856;2023-04-15T00:04:14;10.23;;;5.50;;
5555;SDS011;2801;50.972;7.856;2023-04-15T00:06:42;11.60;;;6.17;;
5555;SDS011;2801;50.972;7.856;2023-04-15T00:09:14;14.17;;;7.40;;
5555;SDS011;2801;50.972;7.856;2023-04-15T00:11:41;14.27;;;7.70;;
5555;SDS011;2801;50.972;7.856;2023-04-15T00:14:08;20.80;;;8.67;;
5555;SDS011;2801;50.972;7.856;2023-04-15T00:16:35;16.80;;;8.00;;
5555;SDS011;2801;50.972;7.856;2023-04-15T00:19:20;16.93;;;7.13;;
5555;SDS011;2801;50.972;7.856;2023-04-15T00:22:05;15.93;;;8.83;;
5555;SDS011;2801;50.972;7.856;2023-04-15T00:24:32;19.80;;;9.27;;
5555;SDS011;2801;50.972;7.856;2023-04-15T00:26:59;17.73;;;9.17;;
5555;SDS011;2801;50.972;7.856;2023-04-15T00:29:43;16.97;;;9.27;;
5555;SDS011;2801;50.972;7.856;2023-04-15T00:32:28;16.47;;;8.77;;
5555;SDS011;2801;50.972;7.856;2023-04-15T00:34:55;12.30;;;7.67;;
5555;SDS011;2801;50.972;7.856;2023-04-15T00:37:22;16.23;;;8.47;;
5555;SDS011;2801;50.972;7.856;2023-04-15T00:39:49;14.33;;;7.50;;
5555;SDS011;2801;50.972;7.856;2023-04-15T00:42:34;14.30;;;7.90;;
5555;SDS011;2801;50.972;7.856;2023-04-15T00:45:19;11.63;;;6.27;;
5555;SDS011;2801;50.972;7.856;2023-04-15T00:47:46;14.73;;;6.57;;
5555;SDS011;2801;50.972;7.856;2023-04-15T00:50:13;14.87;;;6.50;;
5555;SDS011;2801;50.972;7.856;2023-04-15T00:52:57;10.60;;;6.97;;
5555;SDS011;2801;50.972;7.856;2023-04-15T00:55:24;12.20;;;7.13;;
5555;SDS011;2801;50.972;7.856;2023-04-15T00:57:51;12.50;;;7.27;;
5555;SDS011;2801;50.972;7.856;2023-04-15T01:00:19;14.13;;;7.10;;
5555;SDS011;2801;50.972;7.856;2023-04-15T01:02:46;11.27;;;6.97;;
5555;SDS011;2801;50.972;7.856;2023-04-15T01:05:30;9.57;;;6.17;;
5555;SDS011;2801;50.972;7.856;2023-04-15T01:07:58;10.00;;;6.00;;
5555;SDS011;2801;50.972;7.856;2023-04-15T01:10:43;10.50;;;6.30;;
5555;SDS011;2801;50.972;7.856;2023-04-15T01:13:28;12.33;;;6.37;;
5555;SDS011;2801;50.972;7.856;2023-04-15T01:15:56;10.53;;;5.90;;
5555;SDS011;2801;50.972;7.856;2023-04-15T01:18:23;12.63;;;6.30;;
5555;SDS011;2801;50.972;7.856;2023-04-15T01:20:50;11.87;;;6.47;;
5555;SDS011;2801;50.972;7.856;2023-04-15T01:23:18;11.27;;;6.07;;
5555;SDS011;2801;50.972;7.856;2023-04-15T01:25:47;15.43;;;7.10;;
5555;SDS011;2801;50.972;7.856;2023-04-15T01:28:15;11.43;;;6.50;;
5555;SDS011;2801;50.972;7.856;2023-04-15T01:30:42;10.80;;;6.60;;
5555;SDS011;2801;50.972;7.856;2023-04-15T01:33:09;14.77;;;6.60;;
5555;SDS011;2801;50.972;7.856;2023-04-15T01:35:36;11.60;;;6.63;;
5555;SDS011;2801;50.972;7.856;2023-04-15T01:38:05;11.83;;;7.20;;
5555;SDS011;2801;50.972;7.856;2023-04-15T01:40:34;11.83;;;6.40;;
5555;SDS011;2801;50.972;7.856;2023-04-15T01:43:01;9.80;;;5.57;;
5555;SDS011;2801;50.972;7.856;2023-04-15T01:45:29;12.30;;;6.20;;
5555;SDS011;2801;50.972;7.856;2023-04-15T01:48:13;14.40;;;6.40;;
5555;SDS011;2801;50.972;7.856;2023-04-15T01:50:40;11.47;;;6.40;;
5555;SDS011;2801;50.972;7.856;2023-04-15T01:53:08;12.43;;;6.03;;
5555;SDS011;2801;50.972;7.856;2023-04-15T01:55:53;11.67;;;6.17;;
5555;SDS011;2801;50.972;7.856;2023-04-15T01:58:20;11.13;;;7.10;;
5555;SDS011;2801;50.972;7.856;2023-04-15T02:01:05;13.77;;;6.67;;
5555;SDS011;2801;50.972;7.856;2023-04-15T02:03:32;12.30;;;6.70;;
5555;SDS011;2801;50.972;7.856;2023-04-15T02:06:17;12.00;;;6.30;;
5555;SDS011;2801;50.972;7.856;2023-04-15T02:08:44;17.40;;;8.97;;
5555;SDS011;2801;50.972;7.856;2023-04-15T02:11:11;15.20;;;7.90;;
5555;SDS011;2801;50.972;7.856;2023-04-15T02:13:38;16.13;;;7.87;;
5555;SDS011;2801;50.972;7.856;2023-04-15T02:16:14;14.57;;;7.80;;
5555;SDS011;2801;50.972;7.856;2023-04-15T02:19:00;14.13;;;6.97;;
5555;SDS011;2801;50.972;7.856;2023-04-15T02:21:27;12.87;;;8.03;;
5555;SDS011;2801;50.972;7.856;2023-04-15T02:24:13;15.47;;;7.67;;
5555;SDS011;2801;50.972;7.856;2023-04-15T02:26:57;12.53;;;7.40;;
5555;SDS011;2801;50.972;7.856;2023-04-15T02:29:24;13.80;;;7.40;;
5555;SDS011;2801;50.972;7.856;2023-04-15T02:31:51;9.97;;;5.73;;
5555;SDS011;2801;50.972;7.856;2023-04-15T02:34:18;7.37;;;5.27;;
5555;SDS011;2801;50.972;7.856;2023-04-15T02:36:45;10.23;;;6.27;;
5555;SDS011;2801;50.972;7.856;2023-04-15T02:39:13;11.30;;;6.50;;
5555;SDS011;2801;50.972;7.856;2023-04-15T02:41:42;12.67;;;6.63;;
5555;SDS011;2801;50.972;7.856;2023-04-15T02:44:12;15.00;;;6.20;;
5555;SDS011;2801;50.972;7.856;2023-04-15T02:46:39;14.13;;;6.87;;
5555;SDS011;2801;50.972;7.856;2023-04-15T02:49:24;9.70;;;6.33;;
5555;SDS011;2801;50.972;7.856;2023-04-15T02:51:51;9.73;;;6.40;;
5555;SDS011;2801;50.972;7.856;2023-04-15T02:54:35;12.00;;;6.30;;
5555;SDS011;2801;50.972;7.856;2023-04-15T02:57:20;11.77;;;6.13;;
5555;SDS011;2801;50.972;7.856;2023-04-15T02:59:47;10.60;;;6.60;;
5555;SDS011;2801;50.972;7.856;2023-04-15T03:02:13;13.07;;;6.43;;
5555;SDS011;2801;50.972;7.856;2023-04-15T03:04:41;13.10;;;6.93;;
5555;SDS011;2801;50.972;7.856;2023-04-15T03:07:07;12.07;;;6.47;;
5555;SDS011;2801;50.972;7.856;2023-04-15T03:09:52;11.97;;;6.30;;
5555;SDS011;2801;50.972;7.856;2023-04-15T03:12:19;11.33;;;6.20;;
5555;SDS011;2801;50.972;7.856;2023-04-15T03:15:04;12.93;;;7.13;;
5555;SDS011;2801;50.972;7.856;2023-04-15T03:17:32;13.63;;;6.80;;
5555;SDS011;2801;50.972;7.856;2023-04-15T03:20:00;16.17;;;6.90;;
5555;SDS011;2801;50.972;7.856;2023-04-15T03:22:47;14.70;;;7.87;;
5555;SDS011;2801;50.972;7.856;2023-04-15T03:25:14;14.07;;;6.67;;
5555;SDS011;2801;50.972;7.856;2023-04-15T03:27:41;10.67;;;6.33;;
5555;SDS011;2801;50.972;7.856;2023-04-15T03:30:08;11.40;;;6.20;;
5555;SDS011;2801;50.972;7.856;2023-04-15T03:32:36;12.20;;;6.47;;
5555;SDS011;2801;50.972;7.856;2023-04-15T03:35:20;12.13;;;6.47;;
5555;SDS011;2801;50.972;7.856;2023-04-15T03:37:47;14.30;;;6.67;;
5555;SDS011;2801;50.972;7.856;2023-04-15T03:40:32;14.37;;;6.73;;
5555;SDS011;2801;50.972;7.856;2023-04-15T03:43:16;13.87;;;6.73;;
5555;SDS011;2801;50.972;7.856;2023-04-15T03:45:43;10.33;;;6.47;;
5555;SDS011;2801;50.972;7.856;2023-04-15T03:48:10;12.27;;;6.97;;
5555;SDS011;2801;50.972;7.856;2023-04-15T03:50:55;12.90;;;6.33;;
5555;SDS011;2801;50.972;7.856;2023-04-15T03:53:22;11.33;;;6.27;;
5555;SDS011;2801;50.972;7.856;2023-04-15T03:55:48;12.23;;;5.87;;
5555;SDS011;2801;50.972;7.856;2023-04-15T03:58:15;11.77;;;6.77;;
5555;SDS011;2801;50.972;7.856;2023-04-15T04:00:42;12.03;;;6.13;;
5555;SDS011;2801;50.972;7.856;2023-04-15T04:03:09;11.90;;;6.73;;
5555;SDS011;2801;50.972;7.856;2023-04-15T04:05:37;10.10;;;6.17;;
5555;SDS011;2801;50.972;7.856;2023-04-15T04:08:06;14.40;;;6.87;;
5555;SDS011;2801;50.972;7.856;2023-04-15T04:10:33;14.73;;;7.13;;
5555;SDS011;2801;50.972;7.856;2023-04-15T04:13:00;11.63;;;6.30;;
5555;SDS011;2801;50.972;7.856;2023-04-15T04:15:27;10.93;;;6.07;;
5555;SDS011;2801;50.972;7.856;2023-04-15T04:17:54;12.43;;;6.53;;
5555;SDS011;2801;50.972;7.856;2023-04-15T04:20:22;10.37;;;6.60;;
5555;SDS011;2801;50.972;7.856;2023-04-15T04:22:49;14.20;;;6.47;;
5555;SDS011;2801;50.972;7.856;2023-04-15T04:25:16;13.70;;;7.30;;
5555;SDS011;2801;50.972;7.856;2023-04-15T04:27:43;11.67;;;6.90;;
5555;SDS011;2801;50.972;7.856;2023-04-15T04:30:10;10.13;;;6.43;;
5555;SDS011;2801;50.972;7.856;2023-04-15T04:32:38;21.20;;;13.47;;
5555;SDS011;2801;50.972;7.856;2023-04-15T04:35:22;18.97;;;11.53;;
5555;SDS011;2801;50.972;7.856;2023-04-15T04:37:49;16.73;;;9.67;;
5555;SDS011;2801;50.972;7.856;2023-04-15T04:40:17;13.83;;;8.30;;
5555;SDS011;2801;50.972;7.856;2023-04-15T04:42:44;16.90;;;7.93;;
5555;SDS011;2801;50.972;7.856;2023-04-15T04:45:11;11.53;;;7.37;;
5555;SDS011;2801;50.972;7.856;2023-04-15T04:47:38;10.80;;;6.93;;
5555;SDS011;2801;50.972;7.856;2023-04-15T04:50:05;13.10;;;7.73;;
5555;SDS011;2801;50.972;7.856;2023-04-15T04:52:34;11.37;;;6.30;;
5555;SDS011;2801;50.972;7.856;2023-04-15T04:55:01;13.23;;;7.27;;
5555;SDS011;2801;50.972;7.856;2023-04-15T04:57:28;12.50;;;7.13;;
5555;SDS011;2801;50.972;7.856;2023-04-15T05:00:13;11.30;;;6.73;;
5555;SDS011;2801;50.972;7.856;2023-04-15T05:02:40;12.20;;;6.93;;
5555;SDS011;2801;50.972;7.856;2023-04-15T05:05:09;12.63;;;6.93;;
5555;SDS011;2801;50.972;7.856;2023-04-15T05:07:37;13.60;;;7.00;;
5555;SDS011;2801;50.972;7.856;2023-04-15T05:10:22;9.73;;;6.37;;
5555;SDS011;2801;50.972;7.856;2023-04-15T05:12:49;11.13;;;7.20;;
5555;SDS011;2801;50.972;7.856;2023-04-15T05:15:17;11.37;;;7.07;;
5555;SDS011;2801;50.972;7.856;2023-04-15T05:17:44;13.47;;;7.80;;
5555;SDS011;2801;50.972;7.856;2023-04-15T05:20:11;14.70;;;7.20;;
5555;SDS011;2801;50.972;7.856;2023-04-15T05:22:39;12.80;;;7.57;;
5555;SDS011;2801;50.972;7.856;2023-04-15T05:25:07;14.53;;;8.00;;
5555;SDS011;2801;50.972;7.856;2023-04-15T05:27:52;11.50;;;6.70;;
5555;SDS011;2801;50.972;7.856;2023-04-15T05:30:19;12.87;;;7.63;;
5555;SDS011;2801;50.972;7.856;2023-04-15T05:32:46;12.27;;;7.33;;
5555;SDS011;2801;50.972;7.856;2023-04-15T05:35:13;13.00;;;7.83;;
5555;SDS011;2801;50.972;7.856;2023-04-15T05:37:40;15.03;;;7.97;;
5555;SDS011;2801;50.972;7.856;2023-04-15T05:40:07;12.53;;;7.53;;
5555;SDS011;2801;50.972;7.856;2023-04-15T05:42:36;10.53;;;7.23;;
5555;SDS011;2801;50.972;7.856;2023-04-15T05:45:20;10.80;;;7.00;;
5555;SDS011;2801;50.972;7.856;2023-04-15T05:47:47;13.90;;;8.20;;
5555;SDS011;2801;50.972;7.856;2023-04-15T05:50:16;17.07;;;9.20;;
5555;SDS011;2801;50.972;7.856;2023-04-15T05:52:43;19.97;;;9.13;;
5555;SDS011;2801;50.972;7.856;2023-04-15T05:55:11;14.90;;;9.60;;
5555;SDS011;2801;50.972;7.856;2023-04-15T05:57:55;16.20;;;9.20;;
5555;SDS011;2801;50.972;7.856;2023-04-15T06:00:22;18.03;;;9.33;;
5555;SDS011;2801;50.972;7.856;2023-04-15T06:02:49;16.67;;;9.13;;
5555;SDS011;2801;50.972;7.856;2023-04-15T06:05:34;15.90;;;9.23;;
5555;SDS011;2801;50.972;7.856;2023-04-15T06:08:01;15.83;;;9.23;;
5555;SDS011;2801;50.972;7.856;2023-04-15T06:10:28;18.03;;;9.70;;
5555;SDS011;2801;50.972;7.856;2023-04-15T06:12:55;17.23;;;9.53;;
5555;SDS011;2801;50.972;7.856;2023-04-15T06:15:22;14.63;;;9.33;;
5555;SDS011;2801;50.972;7.856;2023-04-15T06:17:49;17.53;;;9.67;;
5555;SDS011;2801;50.972;7.856;2023-04-15T06:20:16;16.77;;;9.43;;
5555;SDS011;2801;50.972;7.856;2023-04-15T06:22:44;16.10;;;9.43;;
5555;SDS011;2801;50.972;7.856;2023-04-15T06:25:11;17.17;;;8.77;;
5555;SDS011;2801;50.972;7.856;2023-04-15T06:27:38;14.93;;;8.60;;
5555;SDS011;2801;50.972;7.856;2023-04-15T06:30:05;16.87;;;9.23;;
5555;SDS011;2801;50.972;7.856;2023-04-15T06:32:33;19.73;;;9.43;;
5555;SDS011;2801;50.972;7.856;2023-04-15T06:35:00;15.23;;;9.00;;
5555;SDS011;2801;50.972;7.856;2023-04-15T06:37:27;16.53;;;8.50;;
5555;SDS011;2801;50.972;7.856;2023-04-15T06:39:55;16.83;;;8.90;;
5555;SDS011;2801;50.972;7.856;2023-04-15T06:42:39;14.57;;;8.13;;
5555;SDS011;2801;50.972;7.856;2023-04-15T06:45:07;15.10;;;8.87;;
5555;SDS011;2801;50.972;7.856;2023-04-15T06:47:34;17.53;;;8.50;;
5555;SDS011;2801;50.972;7.856;2023-04-15T06:50:02;13.77;;;8.23;;
5555;SDS011;2801;50.972;7.856;2023-04-15T06:52:29;19.23;;;9.30;;
5555;SDS011;2801;50.972;7.856;2023-04-15T06:54:56;15.63;;;8.70;;
5555;SDS011;2801;50.972;7.856;2023-04-15T06:57:24;14.43;;;8.70;;
5555;SDS011;2801;50.972;7.856;2023-04-15T06:59:51;14.73;;;8.83;;
5555;SDS011;2801;50.972;7.856;2023-04-15T07:02:19;15.73;;;8.87;;
5555;SDS011;2801;50.972;7.856;2023-04-15T07:04:47;17.53;;;9.70;;
5555;SDS011;2801;50.972;7.856;2023-04-15T07:07:14;17.10;;;9.40;;
5555;SDS011;2801;50.972;7.856;2023-04-15T07:09:42;15.53;;;8.40;;
5555;SDS011;2801;50.972;7.856;2023-04-15T07:12:10;15.40;;;8.87;;
5555;SDS011;2801;50.972;7.856;2023-04-15T07:14:37;13.67;;;8.17;;
5555;SDS011;2801;50.972;7.856;2023-04-15T07:17:04;11.70;;;7.77;;
5555;SDS011;2801;50.972;7.856;2023-04-15T07:19:48;12.53;;;7.73;;
5555;SDS011;2801;50.972;7.856;2023-04-15T07:22:15;13.17;;;7.43;;
5555;SDS011;2801;50.972;7.856;2023-04-15T07:24:42;10.27;;;7.50;;
5555;SDS011;2801;50.972;7.856;2023-04-15T07:27:26;12.60;;;8.13;;
5555;SDS011;2801;50.972;7.856;2023-04-15T07:29:53;10.73;;;7.22;;
5555;SDS011;2801;50.972;7.856;2023-04-15T07:32:20;12.37;;;8.10;;
5555;SDS011;2801;50.972;7.856;2023-04-15T07:34:47;13.93;;;7.63;;
5555;SDS011;2801;50.972;7.856;2023-04-15T07:37:32;11.65;;;6.65;;
5555;SDS011;2801;50.972;7.856;2023-04-15T07:39:59;12.80;;;6.67;;
5555;SDS011;2801;50.972;7.856;2023-04-15T07:42:26;7.10;;;4.90;;
5555;SDS011;2801;50.972;7.856;2023-04-15T07:44:54;9.15;;;5.55;;
5555;SDS011;2801;50.972;7.856;2023-04-15T07:47:22;7.97;;;5.22;;
5555;SDS011;2801;50.972;7.856;2023-04-15T07:49:49;11.75;;;4.97;;
5555;SDS011;2801;50.972;7.856;2023-04-15T07:52:16;5.53;;;4.25;;
5555;SDS011;2801;50.972;7.856;2023-04-15T07:55:01;6.78;;;4.25;;
5555;SDS011;2801;50.972;7.856;2023-04-15T07:57:46;7.22;;;4.60;;
5555;SDS011;2801;50.972;7.856;2023-04-15T08:00:14;6.30;;;4.70;;
5555;SDS011;2801;50.972;7.856;2023-04-15T08:02:42;5.25;;;3.75;;
5555;SDS011;2801;50.972;7.856;2023-04-15T08:05:09;6.43;;;4.22;;
5555;SDS011;2801;50.972;7.856;2023-04-15T08:07:53;7.18;;;4.80;;
5555;SDS011;2801;50.972;7.856;2023-04-15T08:10:20;8.95;;;4.80;;
5555;SDS011;2801;50.972;7.856;2023-04-15T08:12:48;6.35;;;4.20;;
5555;SDS011;2801;50.972;7.856;2023-04-15T08:15:14;6.97;;;5.18;;
5555;SDS011;2801;50.972;7.856;2023-04-15T08:17:59;7.95;;;5.07;;
5555;SDS011;2801;50.972;7.856;2023-04-15T08:20:26;8.73;;;5.32;;
5555;SDS011;2801;50.972;7.856;2023-04-15T08:22:53;8.98;;;5.10;;
5555;SDS011;2801;50.972;7.856;2023-04-15T08:25:21;11.23;;;6.00;;
5555;SDS011;2801;50.972;7.856;2023-04-15T08:27:48;7.93;;;5.05;;
5555;SDS011;2801;50.972;7.856;2023-04-15T08:30:15;7.93;;;4.75;;
5555;SDS011;2801;50.972;7.856;2023-04-15T08:32:44;8.50;;;5.53;;
5555;SDS011;2801;50.972;7.856;2023-04-15T08:35:29;8.23;;;4.68;;
5555;SDS011;2801;50.972;7.856;2023-04-15T08:37:56;8.68;;;4.50;;
5555;SDS011;2801;50.972;7.856;2023-04-15T08:40:42;8.02;;;4.78;;
5555;SDS011;2801;50.972;7.856;2023-04-15T08:43:33;7.85;;;4.35;;
5555;SDS011;2801;50.972;7.856;2023-04-15T08:46:07;7.15;;;4.25;;
5555;SDS011;2801;50.972;7.856;2023-04-15T08:48:37;4.88;;;3.53;;
5555;SDS011;2801;50.972;7.856;2023-04-15T08:51:05;6.57;;;4.15;;
5555;SDS011;2801;50.972;7.856;2023-04-15T08:53:51;7.22;;;4.45;;
5555;SDS011;2801;50.972;7.856;2023-04-15T08:56:37;7.25;;;4.40;;
5555;SDS011;2801;50.972;7.856;2023-04-15T08:59:04;8.52;;;4.07;;
5555;SDS011;2801;50.972;7.856;2023-04-15T09:01:50;6.40;;;4.30;;
5555;SDS011;2801;50.972;7.856;2023-04-15T09:04:18;5.40;;;2.80;;
5555;SDS011;2801;50.972;7.856;2023-04-15T09:06:45;5.30;;;3.22;;
5555;SDS011;2801;50.972;7.856;2023-04-15T09:09:12;5.07;;;3.03;;
5555;SDS011;2801;50.972;7.856;2023-04-15T09:11:40;7.40;;;3.95;;
5555;SDS011;2801;50.972;7.856;2023-04-15T09:14:26;8.32;;;3.75;;
5555;SDS011;2801;50.972;7.856;2023-04-15T09:16:58;6.55;;;3.75;;
5555;SDS011;2801;50.972;7.856;2023-04-15T09:19:30;6.43;;;4.00;;
5555;SDS011;2801;50.972;7.856;2023-04-15T09:22:17;9.60;;;4.70;;
5555;SDS011;2801;50.972;7.856;2023-04-15T09:27:50;6.35;;;4.13;;
5555;SDS011;2801;50.972;7.856;2023-04-15T09:30:19;7.97;;;4.32;;
5555;SDS011;2801;50.972;7.856;2023-04-15T09:32:50;5.35;;;2.85;;
5555;SDS011;2801;50.972;7.856;2023-04-15T09:35:39;5.03;;;3.13;;
5555;SDS011;2801;50.972;7.856;2023-04-15T09:38:07;7.95;;;4.40;;
5555;SDS011;2801;50.972;7.856;2023-04-15T09:40:39;7.45;;;4.72;;
5555;SDS011;2801;50.972;7.856;2023-04-15T09:43:08;8.02;;;4.30;;
5555;SDS011;2801;50.972;7.856;2023-04-15T09:45:38;6.22;;;4.50;;
5555;SDS011;2801;50.972;7.856;2023-04-15T09:50:56;6.95;;;3.90;;
5555;SDS011;2801;50.972;7.856;2023-04-15T09:53:25;7.05;;;4.13;;
5555;SDS011;2801;50.972;7.856;2023-04-15T09:56:11;6.20;;;4.00;;
5555;SDS011;2801;50.972;7.856;2023-04-15T09:58:56;7.60;;;5.18;;
5555;SDS011;2801;50.972;7.856;2023-04-15T10:01:23;7.00;;;4.25;;
5555;SDS011;2801;50.972;7.856;2023-04-15T10:03:50;7.28;;;4.32;;
5555;SDS011;2801;50.972;7.856;2023-04-15T10:06:18;8.25;;;5.15;;
5555;SDS011;2801;50.972;7.856;2023-04-15T10:08:46;6.65;;;4.47;;
5555;SDS011;2801;50.972;7.856;2023-04-15T10:11:13;6.00;;;4.22;;
5555;SDS011;2801;50.972;7.856;2023-04-15T10:13:40;6.68;;;4.35;;
5555;SDS011;2801;50.972;7.856;2023-04-15T10:16:26;7.45;;;4.68;;
5555;SDS011;2801;50.972;7.856;2023-04-15T10:18:54;5.25;;;4.20;;
5555;SDS011;2801;50.972;7.856;2023-04-15T10:21:23;6.28;;;4.32;;
5555;SDS011;2801;50.972;7.856;2023-04-15T10:23:50;7.07;;;4.70;;
5555;SDS011;2801;50.972;7.856;2023-04-15T10:26:17;4.80;;;3.72;;
5555;SDS011;2801;50.972;7.856;2023-04-15T10:28:45;6.35;;;4.40;;
5555;SDS011;2801;50.972;7.856;2023-04-15T10:31:13;7.10;;;4.68;;
5555;SDS011;2801;50.972;7.856;2023-04-15T10:33:43;6.10;;;4.72;;
5555;SDS011;2801;50.972;7.856;2023-04-15T10:36:13;7.03;;;4.53;;
5555;SDS011;2801;50.972;7.856;2023-04-15T10:38:42;5.90;;;4.28;;
5555;SDS011;2801;50.972;7.856;2023-04-15T10:41:18;7.00;;;4.50;;
5555;SDS011;2801;50.972;7.856;2023-04-15T10:44:08;7.15;;;4.85;;
5555;SDS011;2801;50.972;7.856;2023-04-15T10:46:53;8.77;;;5.50;;
5555;SDS011;2801;50.972;7.856;2023-04-15T10:49:45;7.47;;;5.13;;
5555;SDS011;2801;50.972;7.856;2023-04-15T10:52:22;8.57;;;5.50;;
5555;SDS011;2801;50.972;7.856;2023-04-15T10:55:02;8.85;;;5.25;;
5555;SDS011;2801;50.972;7.856;2023-04-15T10:57:39;8.27;;;6.00;;
5555;SDS011;2801;50.972;7.856;2023-04-15T11:02:56;7.40;;;4.85;;
5555;SDS011;2801;50.972;7.856;2023-04-15T11:08:09;7.43;;;5.45;;
5555;SDS011;2801;50.972;7.856;2023-04-15T11:10:55;8.57;;;6.15;;
5555;SDS011;2801;50.972;7.856;2023-04-15T11:13:22;10.02;;;6.07;;
5555;SDS011;2801;50.972;7.856;2023-04-15T11:15:54;9.20;;;5.78;;
5555;SDS011;2801;50.972;7.856;2023-04-15T11:18:40;9.18;;;5.85;;
5555;SDS011;2801;50.972;7.856;2023-04-15T11:21:08;8.63;;;5.88;;
5555;SDS011;2801;50.972;7.856;2023-04-15T11:23:39;9.32;;;5.95;;
5555;SDS011;2801;50.972;7.856;2023-04-15T11:26:13;8.23;;;6.00;;
5555;SDS011;2801;50.972;7.856;2023-04-15T11:28:41;8.73;;;6.10;;
5555;SDS011;2801;50.972;7.856;2023-04-15T11:31:11;10.30;;;6.30;;
5555;SDS011;2801;50.972;7.856;2023-04-15T11:33:46;7.78;;;5.82;;
5555;SDS011;2801;50.972;7.856;2023-04-15T11:36:25;8.50;;;6.00;;
5555;SDS011;2801;50.972;7.856;2023-04-15T11:39:11;9.55;;;6.07;;
5555;SDS011;2801;50.972;7.856;2023-04-15T11:41:40;8.93;;;6.10;;
5555;SDS011;2801;50.972;7.856;2023-04-15T11:44:17;8.98;;;5.95;;
5555;SDS011;2801;50.972;7.856;2023-04-15T11:46:44;7.77;;;5.27;;
5555;SDS011;2801;50.972;7.856;2023-04-15T11:49:11;8.80;;;5.65;;
5555;SDS011;2801;50.972;7.856;2023-04-15T11:51:55;9.33;;;5.90;;
5555;SDS011;2801;50.972;7.856;2023-04-15T11:54:40;7.07;;;4.95;;
5555;SDS011;2801;50.972;7.856;2023-04-15T11:57:30;9.10;;;5.37;;
5555;SDS011;2801;50.972;7.856;2023-04-15T11:59:57;7.90;;;5.63;;
5555;SDS011;2801;50.972;7.856;2023-04-15T12:02:30;8.33;;;5.10;;
5555;SDS011;2801;50.972;7.856;2023-04-15T12:05:05;7.43;;;4.50;;
5555;SDS011;2801;50.972;7.856;2023-04-15T12:07:32;6.83;;;4.17;;
5555;SDS011;2801;50.972;7.856;2023-04-15T12:09:59;5.97;;;3.70;;
5555;SDS011;2801;50.972;7.856;2023-04-15T12:12:28;9.37;;;5.50;;
5555;SDS011;2801;50.972;7.856;2023-04-15T12:15:13;7.80;;;5.00;;
5555;SDS011;2801;50.972;7.856;2023-04-15T12:17:40;9.73;;;5.23;;
5555;SDS011;2801;50.972;7.856;2023-04-15T12:20:23;10.83;;;6.23;;
5555;SDS011;2801;50.972;7.856;2023-04-15T12:22:51;6.87;;;4.70;;
5555;SDS011;2801;50.972;7.856;2023-04-15T12:25:18;7.10;;;4.60;;
5555;SDS011;2801;50.972;7.856;2023-04-15T12:27:59;5.80;;;3.03;;
5555;SDS011;2801;50.972;7.856;2023-04-15T12:30:26;6.60;;;4.70;;
5555;SDS011;2801;50.972;7.856;2023-04-15T12:32:53;7.10;;;4.63;;
5555;SDS011;2801;50.972;7.856;2023-04-15T12:35:20;9.07;;;4.77;;
5555;SDS011;2801;50.972;7.856;2023-04-15T12:38:05;6.53;;;3.83;;
5555;SDS011;2801;50.972;7.856;2023-04-15T12:40:34;6.82;;;4.43;;
5555;SDS011;2801;50.972;7.856;2023-04-15T12:43:01;5.50;;;3.00;;
5555;SDS011;2801;50.972;7.856;2023-04-15T12:45:28;6.87;;;4.10;;
5555;SDS011;2801;50.972;7.856;2023-04-15T12:47:55;7.33;;;4.70;;
5555;SDS011;2801;50.972;7.856;2023-04-15T12:50:39;4.45;;;3.28;;
5555;SDS011;2801;50.972;7.856;2023-04-15T12:53:06;6.50;;;4.20;;
5555;SDS011;2801;50.972;7.856;2023-04-15T12:55:34;5.93;;;3.07;;
5555;SDS011;2801;50.972;7.856;2023-04-15T12:58:01;6.63;;;4.03;;
5555;SDS011;2801;50.972;7.856;2023-04-15T13:00:28;6.07;;;3.58;;
5555;SDS011;2801;50.972;7.856;2023-04-15T13:03:13;6.47;;;3.77;;
5555;SDS011;2801;50.972;7.856;2023-04-15T13:05:40;5.27;;;3.47;;
5555;SDS011;2801;50.972;7.856;2023-04-15T13:08:07;5.63;;;3.40;;
5555;SDS011;2801;50.972;7.856;2023-04-15T13:10:34;4.33;;;2.77;;
5555;SDS011;2801;50.972;7.856;2023-04-15T13:13:02;5.03;;;2.87;;
5555;SDS011;2801;50.972;7.856;2023-04-15T13:15:48;5.57;;;3.17;;
5555;SDS011;2801;50.972;7.856;2023-04-15T13:18:33;3.40;;;2.10;;
5555;SDS011;2801;50.972;7.856;2023-04-15T13:21:18;4.50;;;2.90;;
5555;SDS011;2801;50.972;7.856;2023-04-15T13:23:45;6.80;;;2.93;;
5555;SDS011;2801;50.972;7.856;2023-04-15T13:26:12;4.47;;;2.70;;
5555;SDS011;2801;50.972;7.856;2023-04-15T13:28:39;5.03;;;3.47;;
5555;SDS011;2801;50.972;7.856;2023-04-15T13:31:24;4.57;;;3.13;;
5555;SDS011;2801;50.972;7.856;2023-04-15T13:34:09;5.10;;;3.10;;
5555;SDS011;2801;50.972;7.856;2023-04-15T13:36:36;3.47;;;2.17;;
5555;SDS011;2801;50.972;7.856;2023-04-15T13:39:02;4.83;;;3.20;;
5555;SDS011;2801;50.972;7.856;2023-04-15T13:41:30;4.90;;;2.47;;
5555;SDS011;2801;50.972;7.856;2023-04-15T13:43:57;4.50;;;2.97;;
5555;SDS011;2801;50.972;7.856;2023-04-15T13:46:42;4.30;;;2.50;;
5555;SDS011;2801;50.972;7.856;2023-04-15T13:49:09;3.63;;;2.40;;
5555;SDS011;2801;50.972;7.856;2023-04-15T13:51:35;2.60;;;2.03;;
5555;SDS011;2801;50.972;7.856;2023-04-15T13:54:02;4.23;;;2.80;;
5555;SDS011;2801;50.972;7.856;2023-04-15T13:56:30;4.50;;;3.00;;
5555;SDS011;2801;50.972;7.856;2023-04-15T13:58:58;4.00;;;2.93;;
5555;SDS011;2801;50.972;7.856;2023-04-15T14:01:27;4.50;;;3.30;;
5555;SDS011;2801;50.972;7.856;2023-04-15T14:03:55;6.50;;;2.77;;
5555;SDS011;2801;50.972;7.856;2023-04-15T14:06:22;4.00;;;2.73;;
5555;SDS011;2801;50.972;7.856;2023-04-15T14:09:07;4.10;;;3.07;;
5555;SDS011;2801;50.972;7.856;2023-04-15T14:11:37;5.13;;;3.30;;
5555;SDS011;2801;50.972;7.856;2023-04-15T14:14:04;5.95;;;3.15;;
5555;SDS011;2801;50.972;7.856;2023-04-15T14:16:32;3.70;;;2.67;;
5555;SDS011;2801;50.972;7.856;2023-04-15T14:19:17;5.97;;;3.20;;
5555;SDS011;2801;50.972;7.856;2023-04-15T14:22:01;4.80;;;3.10;;
5555;SDS011;2801;50.972;7.856;2023-04-15T14:24:46;5.70;;;3.87;;
5555;SDS011;2801;50.972;7.856;2023-04-15T14:27:14;6.90;;;3.60;;
5555;SDS011;2801;50.972;7.856;2023-04-15T14:29:41;5.30;;;3.10;;
5555;SDS011;2801;50.972;7.856;2023-04-15T14:32:08;8.67;;;5.03;;
5555;SDS011;2801;50.972;7.856;2023-04-15T14:34:37;5.90;;;3.63;;
5555;SDS011;2801;50.972;7.856;2023-04-15T14:37:05;6.83;;;4.60;;
5555;SDS011;2801;50.972;7.856;2023-04-15T14:39:32;5.57;;;3.77;;
5555;SDS011;2801;50.972;7.856;2023-04-15T14:41:59;6.87;;;4.10;;
5555;SDS011;2801;50.972;7.856;2023-04-15T14:44:26;6.07;;;3.88;;
5555;SDS011;2801;50.972;7.856;2023-04-15T14:46:53;5.83;;;3.77;;
5555;SDS011;2801;50.972;7.856;2023-04-15T14:49:21;5.15;;;3.78;;
5555;SDS011;2801;50.972;7.856;2023-04-15T14:51:48;5.00;;;3.50;;
5555;SDS011;2801;50.972;7.856;2023-04-15T14:54:15;6.23;;;4.20;;
5555;SDS011;2801;50.972;7.856;2023-04-15T14:56:41;4.60;;;3.13;;
5555;SDS011;2801;50.972;7.856;2023-04-15T14:59:08;6.27;;;4.30;;
5555;SDS011;2801;50.972;7.856;2023-04-15T15:01:35;6.80;;;3.80;;
5555;SDS011;2801;50.972;7.856;2023-04-15T15:04:02;5.70;;;3.97;;
5555;SDS011;2801;50.972;7.856;2023-04-15T15:06:29;9.03;;;4.90;;
5555;SDS011;2801;50.972;7.856;2023-04-15T15:08:56;6.10;;;4.03;;
5555;SDS011;2801;50.972;7.856;2023-04-15T15:11:23;8.67;;;5.10;;
5555;SDS011;2801;50.972;7.856;2023-04-15T15:14:08;6.57;;;4.20;;
5555;SDS011;2801;50.972;7.856;2023-04-15T15:16:36;9.53;;;5.03;;
5555;SDS011;2801;50.972;7.856;2023-04-15T15:19:03;7.23;;;4.67;;
5555;SDS011;2801;50.972;7.856;2023-04-15T15:21:30;8.63;;;5.17;;
5555;SDS011;2801;50.972;7.856;2023-04-15T15:23:57;6.93;;;4.67;;
5555;SDS011;2801;50.972;7.856;2023-04-15T15:26:24;7.60;;;5.20;;
5555;SDS011;2801;50.972;7.856;2023-04-15T15:29:10;8.90;;;5.80;;
5555;SDS011;2801;50.972;7.856;2023-04-15T15:31:37;7.93;;;5.20;;
5555;SDS011;2801;50.972;7.856;2023-04-15T15:34:21;7.63;;;4.53;;
5555;SDS011;2801;50.972;7.856;2023-04-15T15:36:48;7.37;;;4.60;;
5555;SDS011;2801;50.972;7.856;2023-04-15T15:39:33;9.70;;;5.53;;
5555;SDS011;2801;50.972;7.856;2023-04-15T15:42:01;7.30;;;4.93;;
5555;SDS011;2801;50.972;7.856;2023-04-15T15:44:28;6.80;;;3.93;;
5555;SDS011;2801;50.972;7.856;2023-04-15T15:47:12;8.33;;;5.57;;